WetterOnline ( http://www.wetteronline.de )

Wetter aktuell Wahrenbrück

Aktuelles Wetter: Kirchhain (100m)

6-stündlich | Neueste Meldungen
Ortszeit Temperatur Wetter
Sa, 20.10. 2:00 4.1° C wolkig
Fr, 19.10. 20:00 11.3° C bedeckt
Fr, 19.10. 14:00 13.0° C bedeckt
Fr, 19.10. 8:00 10.6° C bedeckt
Fr, 19.10. 2:00 12.3° C bedeckt
Do, 18.10. 20:00 13.0° C bedeckt
Do, 18.10. 14:00 18.0° C leicht bewölkt
Do, 18.10. 8:00 3.6° C Nebel
Ortszeit Temperatur Wetter
Sa, 20.10. 6:30 3.0° C bewölkt
Sa, 20.10. 6:20 3.0° C bewölkt
Sa, 20.10. 6:10 3.3° C bewölkt
Sa, 20.10. 6:00 3.0° C bewölkt
Sa, 20.10. 5:50 3.0° C bewölkt
Sa, 20.10. 5:40 2.9° C bewölkt
Sa, 20.10. 5:30 2.4° C bewölkt
Sa, 20.10. 5:00 1.7° C bewölkt
Sa, 20.10. 4:30 1.9° C bedeckt
Sa, 20.10. 4:00 2.3° C wolkig
Sa, 20.10. 3:30 2.4° C wolkig
Ortszeit Relative Feuchte Sichtweite
Sa, 20.10. 2:00 96% 24 km
Fr, 19.10. 20:00 84% 21 km
Fr, 19.10. 14:00 75% 45 km
Fr, 19.10. 8:00 87% 40 km
Fr, 19.10. 2:00 96% 3.6 km
Do, 18.10. 20:00 90% 4.3 km
Do, 18.10. 14:00 59% 4.1 km
Do, 18.10. 8:00 97% 0.5 km
Ortszeit Relative Feuchte Sichtweite
Sa, 20.10. 6:30 96% 22 km
Sa, 20.10. 6:20 96% -
Sa, 20.10. 6:10 96% -
Sa, 20.10. 6:00 97% 23 km
Sa, 20.10. 5:50 97% -
Sa, 20.10. 5:40 97% -
Sa, 20.10. 5:30 98% 26 km
Sa, 20.10. 5:00 96% 23 km
Sa, 20.10. 4:30 97% 16 km
Sa, 20.10. 4:00 98% 14 km
Sa, 20.10. 3:30 98% 9 km
Ortszeit Niederschlagsmenge Niederschlagsart
Sa, 20.10. 2:00 0.0 l/m2 in 6 Std. -
Fr, 19.10. 20:00 0.0 l/m2 in 12 Std. -
Fr, 19.10. 14:00 0.0 l/m2 in 6 Std. -
Fr, 19.10. 8:00 0.3 l/m2 in 12 Std. -
Fr, 19.10. 2:00 0.3 l/m2 in 6 Std. Regen
Do, 18.10. 20:00 0.0 l/m2 in 12 Std. -
Do, 18.10. 14:00 0.0 l/m2 in 6 Std. -
Do, 18.10. 8:00 0.0 l/m2 in 12 Std. -
Ortszeit Niederschlagsmenge Niederschlagsart
Sa, 20.10. 6:30 0.0 l/m2 in 1 Std. -
Sa, 20.10. 6:20 keine Meldung -
Sa, 20.10. 6:10 keine Meldung -
Sa, 20.10. 6:00 0.0 l/m2 in 1 Std. -
Sa, 20.10. 5:50 keine Meldung -
Sa, 20.10. 5:40 keine Meldung -
Sa, 20.10. 5:30 0.0 l/m2 in 1 Std. -
Sa, 20.10. 5:00 0.0 l/m2 in 1 Std. -
Sa, 20.10. 4:30 0.0 l/m2 in 1 Std. -
Sa, 20.10. 4:00 0.0 l/m2 in 1 Std. -
Sa, 20.10. 3:30 0.0 l/m2 in 1 Std. -
Ortszeit Stärke Spitze Richtung
km/h Bft. km/h Grad Sektor
Sa, 20.10. 2:00 0 0 7 - -
Fr, 19.10. 20:00 4 1 11 110° O
Fr, 19.10. 14:00 0 0 18 - -
Fr, 19.10. 8:00 9 2 22 350° N
Fr, 19.10. 2:00 14 3 22 350° N
Do, 18.10. 20:00 9 2 30 320° NW
Do, 18.10. 14:00 13 3 20 310° NW
Do, 18.10. 8:00 0 0 11 - -
Ortszeit Stärke Spitze Richtung
km/h Bft. km/h Grad Sektor
Sa, 20.10. 6:30 4 1 7 360° N
Sa, 20.10. 6:20 4 1 - 360° N
Sa, 20.10. 6:10 4 1 - 330° NW
Sa, 20.10. 6:00 4 1 7 320° NW
Sa, 20.10. 5:50 4 1 - 320° NW
Sa, 20.10. 5:40 4 1 - 350° N
Sa, 20.10. 5:30 6 1 7 330° NW
Sa, 20.10. 5:00 6 1 7 320° NW
Sa, 20.10. 4:30 4 1 7 320° NW
Sa, 20.10. 4:00 4 1 7 340° N
Sa, 20.10. 3:30 2 1 6 340° N
Ortszeit Untergrenze Bedeckung Gattung
total tief tief mittel hoch
Sa, 20.10. 2:00 7200 m 8/8 0/8 - - -
Fr, 19.10. 20:00 1800 m 8/8 8/8 - - -
Fr, 19.10. 14:00 480 m 8/8 8/8 - - -
Fr, 19.10. 8:00 360 m 8/8 8/8 - - -
Fr, 19.10. 2:00 150 m 8/8 8/8 - - -
Do, 18.10. 20:00 180 m 8/8 8/8 - - -
Do, 18.10. 14:00 1800 m 2/8 1/8 - - -
Do, 18.10. 8:00 2400 m 3/8 1/8 - - -
Ortszeit Bedeckungsgrad in Achtel und Wolkenuntergrenze
Sa, 20.10. 6:30 6(1500m) 6(6600m) 7(8400m)
Sa, 20.10. 6:20 6(1500m) 6(6600m) 7(8400m)
Sa, 20.10. 6:10 7(1500m) 7(6000m) 7(6600m)
Sa, 20.10. 6:00 7(1500m) 8(6000m) 8(6600m)
Sa, 20.10. 5:50 7(1500m) 8(6000m) 8(6600m)
Sa, 20.10. 5:40 7(1500m) 8(5400m) 8(6000m)
Sa, 20.10. 5:30 7(1500m) 8(5400m) 8(7200m)
Sa, 20.10. 5:00 4(1500m) 8(5400m) 8(6900m)
Sa, 20.10. 4:30 8(5700m) 8(7200m) 8(7200m)
Sa, 20.10. 4:00 3(1500m) 8(6900m) 8(6900m)
Sa, 20.10. 3:30 7(6900m) 2(6300m) 7(7200m)
Ortszeit Luftdruck NN (hPa) Tendenz (hPa in 3 Std.)
Sa, 20.10. 2:00 1027 + 0,1
Fr, 19.10. 20:00 1025 + 0,8
Fr, 19.10. 14:00 1025 - 0,3
Fr, 19.10. 8:00 1024 + 0,6
Fr, 19.10. 2:00 1024 + 0,4
Do, 18.10. 20:00 1023 + 1,4
Do, 18.10. 14:00 1020 - 0,3
Do, 18.10. 8:00 1021 + 0,7
Ortszeit Luftdruck NN (hPa) Tendenz (hPa in 3 Std.)
Sa, 20.10. 6:30 1028 + 1,0
Sa, 20.10. 6:20 1028 keine Meldung
Sa, 20.10. 6:10 1028 keine Meldung
Sa, 20.10. 6:00 1028 + 0,8
Sa, 20.10. 5:50 1028 keine Meldung
Sa, 20.10. 5:40 1028 keine Meldung
Sa, 20.10. 5:30 1028 + 0,8
Sa, 20.10. 5:00 1027 + 0,5
Sa, 20.10. 4:30 1027 + 0,3
Sa, 20.10. 4:00 1027 + 0,2
Sa, 20.10. 3:30 1027 + 0,1
Ortszeit Schneehöhe (cm)
Sa, 20.10. 2:00 0
Fr, 19.10. 20:00 0
Fr, 19.10. 14:00 0
Fr, 19.10. 8:00 0
Fr, 19.10. 2:00 0
Do, 18.10. 20:00 0
Do, 18.10. 14:00 0
Do, 18.10. 8:00 0
Ortszeit Schneehöhe (cm)
Sa, 20.10. 6:30 0
Sa, 20.10. 6:20 0
Sa, 20.10. 6:10 0
Sa, 20.10. 6:00 0
Sa, 20.10. 5:50 0
Sa, 20.10. 5:40 0
Sa, 20.10. 5:30 0
Sa, 20.10. 5:00 0
Sa, 20.10. 4:30 0
Sa, 20.10. 4:00 0
Sa, 20.10. 3:30 0
Link zu dieser Seite / Seite empfehlen

Das Wetter in ...